Paris - Charles De Gaulle, France

12:43 PM CEST on July 25, 2016 (GMT +0200)
Charles de Gaulle | | Change Station

Elev 367 ft 49.02 °N, 2.53 °E | Updated 13 minutes ago

Mostly Cloudy
Mostly Cloudy
75 °F
Feels Like 75 °F
N
4
Wind Variable Wind from NNW

Today
High -- | Low -- °F
--% Chance of Precip.
Yesterday
High -- | Low -- °F
Precip. -- in
Pressure 30.15 in
Visibility 6.2 miles
Clouds Scattered Clouds 2500 ft
Mostly Cloudy 8300 ft
Dew Point 63 °F
Humidity 65%
Rainfall 0.00 in
Snow Depth Not available.
6:13 AM 9:38 PM
Waning Gibbous, 67% visible
METAR LFPG 251030Z 33003KT 240V050 9999 SCT025 BKN083 24/17 Q1021 NOSIG
Pressure 30.15 in
Visibility 6.2 miles
Clouds Scattered Clouds 2500 ft
Mostly Cloudy 8300 ft
Dew Point 63 °F
Humidity 65%
Rainfall 0.00 in
Snow Depth Not available.
6:13 AM 9:38 PM
Waning Gibbous, 67% visible
METAR LFPG 251030Z 33003KT 240V050 9999 SCT025 BKN083 24/17 Q1021 NOSIG

10-Day Weather Forecast

×

Almanac

Astronomy

Jul. 25, 2016 Rise Set
Actual Time
Civil Twilight
Nautical Twilight
Astronomical Twilight
Moon
Length of Visible Light
Length of Day
Tomorrow will be .
, % of the Moon is Illuminated

Today's Extremes

Country Highs Country Lows

Community

WunderPhotos

Upload Photos

1,927,291 photos uploaded!

WunderBlog® & News

Nearby

Air Quality

  Air Quality AQ Index Pollutant
Not available.

Snow Depth

Station Depth Elevation

Earthquake Activity

City Distance Mag. Time & Date
Minimum magnitude displayed is 2.5.

Coastal Water Temperatures

Place Temperature

Stations

Nearby Weather Stations

Station Location Temp. Windchill Dew Point Humidity Wind Precip. Elev Updated Type